2V5

Wray Municipal Airport

Wray, Colorado, USA
METAR K2V5 172315Z AUTO 03009KT 1 1/4SM -SN BKN007 BKN011 OVC017 M05/M07 A3032 RMK AO2
Observed Flight Rules
Nov-17 @ 23:15 UTC (22 minutes ago) Instrument Flight Rules
Wind Visibility Clouds Conditions
30° at 9 knots 1 1/4 miles
  • Broken at 700' AGL
  • Broken at 1,100' AGL
  • Overcast at 1,700' AGL
  • Light Snow
Temperatures Readings
Current -5°C / 23°F
Dewpoint -7°C / 19°F
Humidity 86%
Altimeter 30.32" Hg
Pressure 1027 hPa
Elevation 1118
METAR K2V5 172315Z AUTO 03009KT 1 1/4SM -SN BKN007 BKN011 OVC017 M05/M07 A3032 RMK AO2
Observed Flight Rules
Nov-17 @ 23:15 UTC
(22 minutes ago)
IFR
Wind Visibility
30° at 9 knots 1 1/4 miles
Clouds
  • Broken at 700' AGL
  • Broken at 1,100' AGL
  • Overcast at 1,700' AGL
Conditions
  • Light Snow
Temperature Dewpoint
-5°C / 23°F -7°C / 19°F
Humidity Altimeter Pressure
86% 30.32" Hg 1027 hPa